Time;durP1;ratioP1;P1;durP2;ratioP2;P2;SDS_P1;SDS_P2;PMS_P1;PMS_P2;Temp;Humidity;BMP_temperature;BMP_pressure;BME280_temperature;BME280_humidity;BME280_pressure;Samples;Min_cycle;Max_cycle;Signal;HPM_P1;HPM_P2
2023/01/05 00:00:00;;;;;;;3.78;1.63;;;;;;;;;;5022369;28;20049;-85
2023/01/05 00:02:27;;;;;;;3.30;1.67;;;;;;;;;;5022882;28;20034;-86
2023/01/05 00:04:52;;;;;;;3.40;1.40;;;;;;;;;;5022034;28;20030;-85
2023/01/05 00:07:18;;;;;;;3.03;1.63;;;;;;;;;;5019916;28;20042;-85
2023/01/05 00:09:43;;;;;;;2.63;1.50;;;;;;;;;;5005765;28;20403;-84
2023/01/05 00:23:19;;;;;;;3.33;1.65;;;;;;;;;;5004384;28;20034;-84
2023/01/05 00:25:45;;;;;;;3.78;1.60;;;;;;;;;;5003433;28;20542;-82
2023/01/05 00:28:11;;;;;;;2.72;1.55;;;;;;;;;;5003337;28;20073;-82
2023/01/05 00:30:42;;;;;;;2.70;1.60;;;;;;;;;;5002213;28;20179;-83
2023/01/05 00:33:14;;;;;;;1.90;1.10;;;;;;;;;;5019406;28;20046;-83
2023/01/05 00:35:40;;;;;;;2.10;0.90;;;;;;;;;;5018269;28;20038;-84
2023/01/05 00:38:06;;;;;;;3.47;1.27;;;;;;;;;;5017377;28;20139;-85
2023/01/05 00:40:32;;;;;;;2.33;1.38;;;;;;;;;;5017849;28;20463;-82
2023/01/05 00:42:58;;;;;;;2.42;1.55;;;;;;;;;;5004024;28;20541;-83
2023/01/05 00:45:23;;;;;;;2.05;1.17;;;;;;;;;;5017515;28;20042;-83
2023/01/05 00:47:50;;;;;;;1.23;0.90;;;;;;;;;;5016392;28;20406;-85
2023/01/05 00:50:17;;;;;;;1.35;0.80;;;;;;;;;;5000203;28;20037;-83
2023/01/05 00:52:43;;;;;;;1.38;0.90;;;;;;;;;;5018224;28;20042;-83
2023/01/05 00:55:10;;;;;;;2.03;1.00;;;;;;;;;;5017876;28;20030;-84
2023/01/05 00:57:35;;;;;;;2.17;1.10;;;;;;;;;;5017301;28;20042;-85
2023/01/05 01:00:03;;;;;;;0.60;0.60;;;;;;;;;;5019218;28;20118;-84
2023/01/05 01:02:29;;;;;;;0.77;0.38;;;;;;;;;;5018260;28;20407;-83
2023/01/05 01:04:54;;;;;;;0.45;0.40;;;;;;;;;;5018346;28;20034;-84
2023/01/05 01:07:20;;;;;;;0.95;0.50;;;;;;;;;;5017755;28;20093;-84
2023/01/05 01:09:45;;;;;;;3.45;0.70;;;;;;;;;;5020291;28;20045;-84
2023/01/05 01:12:11;;;;;;;1.65;0.90;;;;;;;;;;5018613;28;20045;-82
2023/01/05 01:14:37;;;;;;;1.25;0.80;;;;;;;;;;5018983;28;20490;-84
2023/01/05 01:17:03;;;;;;;1.85;1.00;;;;;;;;;;5002091;28;20030;-84
2023/01/05 01:19:28;;;;;;;1.58;1.00;;;;;;;;;;5020100;28;20115;-85
2023/01/05 01:21:54;;;;;;;0.70;0.70;;;;;;;;;;5019098;28;20026;-82
2023/01/05 01:24:25;;;;;;;0.82;0.73;;;;;;;;;;5004296;28;20486;-83
2023/01/05 01:26:51;;;;;;;1.42;0.75;;;;;;;;;;5019074;28;20026;-84
2023/01/05 01:29:17;;;;;;;0.68;0.68;;;;;;;;;;5018848;28;20483;-84
2023/01/05 01:31:44;;;;;;;1.05;0.68;;;;;;;;;;5018339;28;20030;-84
2023/01/05 01:34:09;;;;;;;1.27;0.65;;;;;;;;;;5018714;28;20043;-85
2023/01/05 01:36:35;;;;;;;0.40;0.40;;;;;;;;;;5004943;28;20510;-84
2023/01/05 01:39:00;;;;;;;1.00;0.57;;;;;;;;;;5002278;28;20410;-83
2023/01/05 01:41:31;;;;;;;0.50;0.50;;;;;;;;;;5005131;28;20046;-84
2023/01/05 01:43:58;;;;;;;2.05;0.60;;;;;;;;;;5022813;28;20061;-84
2023/01/05 01:46:26;;;;;;;0.70;0.60;;;;;;;;;;5022091;28;20037;-82
2023/01/05 01:48:56;;;;;;;0.77;0.50;;;;;;;;;;5006326;28;20065;-84
2023/01/05 01:51:36;;;;;;;1.05;0.60;;;;;;;;;;5021450;28;20038;-85
2023/01/05 01:54:06;;;;;;;0.68;0.52;;;;;;;;;;5022997;28;20058;-86
2023/01/05 01:56:40;;;;;;;0.60;0.57;;;;;;;;;;5008236;28;20041;-85
2023/01/05 01:59:06;;;;;;;0.75;0.55;;;;;;;;;;5023292;28;20042;-84
2023/01/05 02:01:32;;;;;;;1.20;0.60;;;;;;;;;;4991174;28;20038;-86
2023/01/05 02:04:00;;;;;;;0.85;0.70;;;;;;;;;;5008419;28;20045;-82
2023/01/05 02:06:26;;;;;;;0.77;0.60;;;;;;;;;;5023470;28;20148;-84
2023/01/05 02:08:52;;;;;;;0.95;0.60;;;;;;;;;;5023807;28;20026;-86
2023/01/05 02:11:50;;;;;;;0.82;0.65;;;;;;;;;;5025445;28;20030;-84
2023/01/05 02:14:37;;;;;;;0.52;0.50;;;;;;;;;;5023626;28;20042;-83
2023/01/05 02:17:24;;;;;;;0.80;0.52;;;;;;;;;;5008128;28;20057;-86
2023/01/05 02:20:10;;;;;;;0.70;0.50;;;;;;;;;;5008205;28;20454;-87
2023/01/05 02:22:51;;;;;;;2.13;0.50;;;;;;;;;;4997044;28;20046;-86
2023/01/05 02:25:32;;;;;;;0.38;0.38;;;;;;;;;;5007699;28;20030;-85
2023/01/05 02:28:07;;;;;;;1.30;0.50;;;;;;;;;;5006928;28;20034;-86
2023/01/05 02:30:52;;;;;;;0.60;0.50;;;;;;;;;;5007380;28;20035;-85
2023/01/05 02:33:31;;;;;;;0.77;0.63;;;;;;;;;;5005824;28;20061;-86
2023/01/05 02:36:17;;;;;;;0.75;0.60;;;;;;;;;;5021975;28;20038;-86
2023/01/05 02:39:22;;;;;;;0.85;0.70;;;;;;;;;;5005272;28;20030;-85
2023/01/05 02:41:57;;;;;;;0.60;0.50;;;;;;;;;;4983006;28;20049;-85
2023/01/05 02:44:27;;;;;;;0.60;0.50;;;;;;;;;;5020257;28;20042;-84
2023/01/05 02:47:06;;;;;;;0.68;0.50;;;;;;;;;;5019315;28;20041;-86
2023/01/05 02:49:37;;;;;;;0.82;0.50;;;;;;;;;;5020547;28;20405;-84
2023/01/05 02:52:07;;;;;;;0.90;0.50;;;;;;;;;;5017779;28;20491;-84
2023/01/05 02:54:35;;;;;;;0.52;0.40;;;;;;;;;;5018849;28;20042;-84
2023/01/05 02:57:15;;;;;;;0.90;0.55;;;;;;;;;;5003179;28;20018;-85
2023/01/05 02:59:53;;;;;;;0.38;0.38;;;;;;;;;;5020050;28;20041;-84
2023/01/05 03:02:29;;;;;;;0.40;0.40;;;;;;;;;;5019437;28;20041;-84
2023/01/05 03:04:54;;;;;;;0.30;0.30;;;;;;;;;;5018908;28;20037;-84
2023/01/05 03:07:27;;;;;;;0.32;0.32;;;;;;;;;;5003890;28;20418;-84
2023/01/05 03:09:53;;;;;;;1.00;0.50;;;;;;;;;;5018508;28;20080;-85
2023/01/05 03:15:18;;;;;;;0.60;0.47;;;;;;;;;;5018867;28;20031;-86
2023/01/05 03:17:48;;;;;;;0.40;0.38;;;;;;;;;;5019641;28;20093;-86
2023/01/05 03:20:20;;;;;;;0.55;0.50;;;;;;;;;;5018017;28;20034;-84
2023/01/05 03:37:17;;;;;;;0.70;0.50;;;;;;;;;;4981186;28;20039;-85
2023/01/05 03:39:46;;;;;;;0.65;0.52;;;;;;;;;;5020149;28;20042;-85
2023/01/05 03:42:14;;;;;;;0.50;0.50;;;;;;;;;;5018656;28;20054;-83
2023/01/05 03:44:43;;;;;;;0.30;0.25;;;;;;;;;;5019069;28;20041;-83
2023/01/05 03:47:13;;;;;;;0.30;0.30;;;;;;;;;;5002731;28;20034;-86
2023/01/05 03:49:38;;;;;;;0.60;0.30;;;;;;;;;;5022111;28;20565;-85
2023/01/05 03:52:04;;;;;;;0.22;0.22;;;;;;;;;;5004312;28;20030;-85
2023/01/05 03:54:30;;;;;;;0.25;0.20;;;;;;;;;;5018708;28;20038;-84
2023/01/05 03:56:55;;;;;;;1.75;0.40;;;;;;;;;;5019255;28;20045;-85
2023/01/05 03:59:21;;;;;;;1.77;0.30;;;;;;;;;;5003753;28;20037;-84
2023/01/05 04:01:48;;;;;;;0.82;0.50;;;;;;;;;;5005481;28;20042;-86
2023/01/05 04:04:13;;;;;;;0.70;0.50;;;;;;;;;;5003871;28;20070;-85
2023/01/05 04:06:39;;;;;;;0.70;0.50;;;;;;;;;;5021338;28;20057;-85
2023/01/05 04:09:07;;;;;;;0.75;0.50;;;;;;;;;;5003596;28;20034;-84
2023/01/05 04:11:32;;;;;;;0.30;0.30;;;;;;;;;;5020775;28;20044;-85
2023/01/05 04:14:02;;;;;;;0.55;0.40;;;;;;;;;;5004479;28;20065;-87
2023/01/05 04:16:27;;;;;;;0.85;0.30;;;;;;;;;;5019921;28;20487;-84
2023/01/05 04:18:56;;;;;;;0.32;0.30;;;;;;;;;;5018807;28;20030;-84
2023/01/05 04:21:22;;;;;;;0.63;0.28;;;;;;;;;;5020744;28;20644;-86
2023/01/05 04:23:50;;;;;;;0.50;0.40;;;;;;;;;;5023613;28;20053;-86
2023/01/05 04:26:16;;;;;;;0.47;0.40;;;;;;;;;;5023470;28;20064;-85
2023/01/05 04:28:45;;;;;;;1.02;0.40;;;;;;;;;;5024770;28;20034;-83
2023/01/05 04:31:11;;;;;;;1.42;0.50;;;;;;;;;;5023698;28;20111;-84
2023/01/05 04:33:38;;;;;;;1.63;0.50;;;;;;;;;;5022196;28;20041;-85
2023/01/05 04:36:06;;;;;;;0.70;0.40;;;;;;;;;;5006305;28;20029;-84
2023/01/05 04:38:32;;;;;;;0.30;0.30;;;;;;;;;;5023670;28;20033;-85
2023/01/05 04:40:58;;;;;;;1.25;0.68;;;;;;;;;;5007126;28;20033;-84
2023/01/05 04:43:24;;;;;;;0.80;0.80;;;;;;;;;;5007743;28;20064;-84
2023/01/05 04:45:50;;;;;;;1.40;0.90;;;;;;;;;;5007108;28;20418;-87
2023/01/05 04:48:17;;;;;;;2.20;1.00;;;;;;;;;;5025667;28;20118;-85
2023/01/05 04:50:42;;;;;;;1.85;1.10;;;;;;;;;;5006298;28;20057;-85
2023/01/05 04:53:09;;;;;;;1.95;1.05;;;;;;;;;;5024802;28;20034;-85
2023/01/05 04:55:37;;;;;;;1.33;0.90;;;;;;;;;;5024131;28;20057;-87
2023/01/05 04:58:03;;;;;;;1.30;0.90;;;;;;;;;;5007711;28;20037;-86
2023/01/05 05:00:32;;;;;;;1.42;1.00;;;;;;;;;;5005742;28;20517;-85
2023/01/05 05:02:59;;;;;;;2.15;1.00;;;;;;;;;;5006448;28;20037;-84
2023/01/05 05:05:25;;;;;;;1.77;1.10;;;;;;;;;;5020414;28;20038;-85
2023/01/05 05:07:53;;;;;;;2.72;0.82;;;;;;;;;;5003061;28;20102;-83
2023/01/05 05:10:23;;;;;;;1.35;1.00;;;;;;;;;;5020303;28;20088;-83
2023/01/05 05:12:49;;;;;;;1.77;0.90;;;;;;;;;;5004268;28;20038;-83
2023/01/05 05:15:14;;;;;;;0.80;0.55;;;;;;;;;;5018674;28;20037;-84
2023/01/05 05:17:44;;;;;;;0.75;0.50;;;;;;;;;;5026356;28;20026;-84
2023/01/05 05:20:12;;;;;;;1.23;0.50;;;;;;;;;;5008539;28;20124;-84
2023/01/05 05:22:38;;;;;;;0.20;0.20;;;;;;;;;;5024081;28;20061;-85
2023/01/05 05:25:05;;;;;;;0.10;0.10;;;;;;;;;;5024025;28;20033;-85
2023/01/05 05:27:30;;;;;;;0.40;0.10;;;;;;;;;;5026890;28;20057;-84
2023/01/05 05:29:56;;;;;;;0.30;0.10;;;;;;;;;;5028565;28;20041;-86
2023/01/05 05:32:21;;;;;;;0.40;0.28;;;;;;;;;;5031940;28;20041;-84
2023/01/05 05:34:47;;;;;;;0.13;0.10;;;;;;;;;;5028879;28;20030;-83
2023/01/05 05:37:12;;;;;;;1.40;1.00;;;;;;;;;;5008409;28;20030;-87
2023/01/05 05:39:38;;;;;;;0.10;0.10;;;;;;;;;;5027893;28;20037;-85
2023/01/05 05:42:04;;;;;;;1.30;0.13;;;;;;;;;;5025622;28;20049;-84
2023/01/05 05:44:29;;;;;;;0.88;0.30;;;;;;;;;;5024486;28;20042;-84
2023/01/05 05:46:55;;;;;;;0.17;0.17;;;;;;;;;;5008170;28;20124;-85
2023/01/05 05:49:20;;;;;;;0.55;0.25;;;;;;;;;;5008687;28;20030;-84
2023/01/05 05:51:45;;;;;;;0.47;0.10;;;;;;;;;;5024240;28;20042;-85
2023/01/05 05:54:11;;;;;;;0.10;0.10;;;;;;;;;;5023240;28;20041;-86
2023/01/05 05:56:36;;;;;;;0.15;0.10;;;;;;;;;;5025763;28;20497;-84
2023/01/05 05:59:02;;;;;;;0.38;0.10;;;;;;;;;;5026652;28;20049;-85
2023/01/05 06:01:28;;;;;;;0.10;0.10;;;;;;;;;;5009756;28;20037;-84
2023/01/05 06:03:53;;;;;;;0.20;0.20;;;;;;;;;;5025576;28;20044;-84
2023/01/05 06:06:19;;;;;;;0.75;0.10;;;;;;;;;;5023839;28;20040;-83
2023/01/05 06:08:44;;;;;;;0.68;0.13;;;;;;;;;;5007833;28;20434;-85
2023/01/05 06:11:10;;;;;;;2.35;0.40;;;;;;;;;;5025098;28;20124;-84
2023/01/05 06:13:35;;;;;;;0.15;0.15;;;;;;;;;;5025776;28;20038;-84
2023/01/05 06:16:01;;;;;;;0.20;0.10;;;;;;;;;;5024612;28;20094;-85
2023/01/05 06:18:27;;;;;;;0.30;0.22;;;;;;;;;;5025243;28;20033;-86
2023/01/05 06:20:53;;;;;;;0.20;0.10;;;;;;;;;;5026836;28;20053;-85
2023/01/05 06:23:19;;;;;;;0.30;0.20;;;;;;;;;;5008815;28;20046;-85
2023/01/05 06:25:44;;;;;;;0.20;0.20;;;;;;;;;;5008130;28;20046;-86
2023/01/05 06:28:13;;;;;;;0.20;0.20;;;;;;;;;;5023768;28;20049;-84
2023/01/05 06:30:38;;;;;;;0.20;0.20;;;;;;;;;;5025178;28;20136;-86
2023/01/05 06:33:04;;;;;;;0.20;0.20;;;;;;;;;;5025309;28;20034;-84
2023/01/05 06:35:29;;;;;;;0.35;0.20;;;;;;;;;;5025937;28;20033;-86
2023/01/05 06:37:54;;;;;;;0.45;0.20;;;;;;;;;;5027282;28;20033;-84
2023/01/05 06:40:20;;;;;;;0.20;0.20;;;;;;;;;;5009189;28;20057;-85
2023/01/05 06:42:46;;;;;;;0.20;0.15;;;;;;;;;;5008940;28;20045;-86
2023/01/05 06:45:14;;;;;;;0.15;0.15;;;;;;;;;;5025704;28;20041;-85
2023/01/05 06:47:40;;;;;;;0.17;0.17;;;;;;;;;;5009346;28;20402;-85
2023/01/05 06:50:06;;;;;;;0.00;0.00;;;;;;;;;;5026640;28;20101;-87
2023/01/05 06:52:35;;;;;;;0.15;0.15;;;;;;;;;;5026951;28;20124;-86
2023/01/05 06:55:08;;;;;;;0.30;0.20;;;;;;;;;;5025419;28;20552;-85
2023/01/05 06:57:35;;;;;;;0.30;0.20;;;;;;;;;;5026109;28;20066;-85
2023/01/05 07:00:06;;;;;;;0.00;0.00;;;;;;;;;;5027729;28;20036;-85
2023/01/05 07:02:32;;;;;;;0.00;0.00;;;;;;;;;;5045566;28;20047;-86
2023/01/05 07:04:57;;;;;;;0.08;0.05;;;;;;;;;;5043916;28;20120;-84
2023/01/05 07:07:23;;;;;;;0.22;0.10;;;;;;;;;;5047115;28;20041;-83
2023/01/05 07:09:48;;;;;;;0.73;0.20;;;;;;;;;;5044810;28;20079;-84
2023/01/05 07:12:15;;;;;;;0.10;0.10;;;;;;;;;;5049242;28;20037;-87
2023/01/05 07:14:43;;;;;;;0.40;0.28;;;;;;;;;;5047592;28;20033;-84
2023/01/05 07:17:11;;;;;;;0.25;0.10;;;;;;;;;;5045153;28;20454;-85
2023/01/05 07:19:37;;;;;;;0.22;0.10;;;;;;;;;;5043923;28;20034;-85
2023/01/05 07:22:03;;;;;;;0.08;0.08;;;;;;;;;;5028230;28;20043;-84
2023/01/05 07:24:28;;;;;;;0.10;0.10;;;;;;;;;;5047863;28;20139;-85
2023/01/05 07:26:54;;;;;;;0.10;0.10;;;;;;;;;;5030486;28;20033;-85
2023/01/05 07:29:19;;;;;;;0.90;0.10;;;;;;;;;;5046513;28;20503;-85
2023/01/05 07:31:46;;;;;;;0.00;0.00;;;;;;;;;;5045429;28;20037;-85
2023/01/05 07:34:12;;;;;;;0.10;0.10;;;;;;;;;;5026875;28;20107;-84
2023/01/05 07:36:37;;;;;;;0.00;0.00;;;;;;;;;;5026494;28;20025;-85
2023/01/05 07:39:03;;;;;;;0.13;0.10;;;;;;;;;;5044887;28;20030;-86
2023/01/05 07:41:28;;;;;;;0.08;0.08;;;;;;;;;;5043556;28;20493;-85
2023/01/05 07:43:54;;;;;;;0.10;0.10;;;;;;;;;;5043338;28;20038;-86
2023/01/05 07:46:19;;;;;;;0.10;0.00;;;;;;;;;;5044585;28;20393;-83
2023/01/05 07:48:45;;;;;;;0.10;0.00;;;;;;;;;;5044883;28;20038;-84
2023/01/05 07:51:10;;;;;;;0.20;0.10;;;;;;;;;;5044137;28;20048;-86
2023/01/05 07:53:37;;;;;;;0.00;0.00;;;;;;;;;;5044419;28;20041;-84
2023/01/05 07:56:05;;;;;;;0.10;0.10;;;;;;;;;;5045106;28;20063;-85
2023/01/05 07:58:31;;;;;;;0.40;0.10;;;;;;;;;;5025869;28;20029;-84
2023/01/05 08:01:02;;;;;;;0.17;0.13;;;;;;;;;;5043026;28;20037;-83
2023/01/05 08:03:27;;;;;;;0.20;0.10;;;;;;;;;;5044675;28;20044;-84
2023/01/05 08:05:53;;;;;;;0.60;0.10;;;;;;;;;;5042424;28;20017;-84
2023/01/05 08:08:18;;;;;;;0.13;0.10;;;;;;;;;;5026961;28;20053;-84
2023/01/05 08:10:44;;;;;;;0.00;0.00;;;;;;;;;;5025576;28;20030;-85
2023/01/05 08:15:56;;;;;;;0.30;0.20;;;;;;;;;;5041469;28;20030;-87
2023/01/05 08:18:22;;;;;;;0.17;0.17;;;;;;;;;;5042180;28;20034;-85
2023/01/05 08:20:57;;;;;;;0.20;0.20;;;;;;;;;;5040752;28;20052;-84
2023/01/05 08:23:26;;;;;;;0.03;0.03;;;;;;;;;;5024179;28;20414;-85
2023/01/05 08:25:52;;;;;;;0.10;0.10;;;;;;;;;;5039598;28;20038;-84
2023/01/05 08:28:18;;;;;;;0.30;0.13;;;;;;;;;;5043086;28;20068;-85
2023/01/05 08:30:44;;;;;;;0.10;0.10;;;;;;;;;;5042144;28;20037;-84
2023/01/05 08:33:09;;;;;;;0.00;0.00;;;;;;;;;;5024514;28;20029;-85
2023/01/05 08:35:39;;;;;;;1.65;0.10;;;;;;;;;;5043235;28;20482;-84
2023/01/05 08:38:05;;;;;;;0.10;0.05;;;;;;;;;;5039892;28;20133;-85
2023/01/05 08:40:30;;;;;;;1.83;0.20;;;;;;;;;;5042473;28;20053;-85
2023/01/05 08:42:56;;;;;;;0.20;0.10;;;;;;;;;;5042390;28;20402;-83
2023/01/05 08:45:21;;;;;;;0.20;0.17;;;;;;;;;;5040608;28;20124;-84
2023/01/05 08:47:47;;;;;;;0.43;0.10;;;;;;;;;;5040155;28;20038;-84
2023/01/05 08:50:13;;;;;;;0.10;0.10;;;;;;;;;;5040691;28;20033;-84
2023/01/05 08:52:39;;;;;;;0.20;0.10;;;;;;;;;;5042053;28;20033;-83
2023/01/05 08:55:06;;;;;;;0.40;0.10;;;;;;;;;;5042342;28;20041;-83
2023/01/05 08:57:32;;;;;;;1.45;0.10;;;;;;;;;;5042704;28;20029;-84
2023/01/05 08:59:58;;;;;;;0.20;0.15;;;;;;;;;;5042706;28;20037;-84
2023/01/05 09:02:27;;;;;;;0.00;0.00;;;;;;;;;;5042321;28;20402;-85
2023/01/05 09:04:52;;;;;;;0.13;0.10;;;;;;;;;;5043598;28;20103;-84
2023/01/05 09:07:18;;;;;;;0.05;0.05;;;;;;;;;;5043527;28;20482;-83
2023/01/05 09:09:44;;;;;;;0.15;0.13;;;;;;;;;;5042229;28;20040;-83
2023/01/05 09:12:10;;;;;;;0.10;0.10;;;;;;;;;;5043984;28;20041;-83
2023/01/05 09:14:35;;;;;;;0.35;0.10;;;;;;;;;;5041552;28;20044;-83
2023/01/05 09:17:01;;;;;;;0.50;0.10;;;;;;;;;;5043153;28;20090;-84
2023/01/05 09:19:26;;;;;;;0.20;0.15;;;;;;;;;;5043775;28;20091;-84
2023/01/05 09:21:52;;;;;;;0.43;0.13;;;;;;;;;;5042935;28;20124;-83
2023/01/05 09:24:18;;;;;;;0.00;0.00;;;;;;;;;;5042544;28;20041;-83
2023/01/05 09:26:44;;;;;;;0.00;0.00;;;;;;;;;;5042423;28;20038;-85
2023/01/05 09:29:11;;;;;;;1.70;0.20;;;;;;;;;;5043588;28;20037;-85
2023/01/05 09:31:36;;;;;;;0.10;0.10;;;;;;;;;;5043533;28;20091;-84
2023/01/05 09:34:02;;;;;;;0.20;0.10;;;;;;;;;;5042894;28;20041;-84
2023/01/05 09:36:28;;;;;;;0.10;0.10;;;;;;;;;;5043467;28;20033;-84
2023/01/05 09:38:57;;;;;;;0.10;0.10;;;;;;;;;;5040724;28;20482;-83
2023/01/05 09:41:34;;;;;;;0.17;0.17;;;;;;;;;;5043798;28;20506;-84
2023/01/05 09:44:11;;;;;;;0.43;0.20;;;;;;;;;;5042101;28;20039;-84
2023/01/05 09:46:40;;;;;;;0.10;0.10;;;;;;;;;;5027278;28;20038;-84
2023/01/05 09:49:12;;;;;;;0.20;0.20;;;;;;;;;;5040573;28;20041;-83
2023/01/05 09:51:37;;;;;;;0.17;0.17;;;;;;;;;;5041681;28;20045;-85
2023/01/05 09:54:03;;;;;;;0.10;0.10;;;;;;;;;;5039208;28;20038;-84
2023/01/05 09:56:33;;;;;;;0.10;0.10;;;;;;;;;;5040341;28;20052;-84
2023/01/05 09:59:27;;;;;;;0.10;0.10;;;;;;;;;;5040336;28;20041;-84
2023/01/05 10:01:57;;;;;;;0.30;0.10;;;;;;;;;;5038441;28;20426;-83
2023/01/05 10:04:24;;;;;;;0.30;0.20;;;;;;;;;;5041119;28;20046;-84
2023/01/05 10:06:53;;;;;;;0.75;0.10;;;;;;;;;;5027450;28;20041;-83
2023/01/05 10:09:32;;;;;;;0.10;0.10;;;;;;;;;;5046075;28;20042;-84
2023/01/05 10:15:13;;;;;;;0.10;0.10;;;;;;;;;;5043721;28;20037;-84
2023/01/05 10:17:40;;;;;;;0.10;0.10;;;;;;;;;;5028997;28;20033;-84
2023/01/05 10:20:35;;;;;;;0.10;0.10;;;;;;;;;;5046472;28;20512;-84
2023/01/05 10:23:35;;;;;;;0.75;0.20;;;;;;;;;;5021120;28;20052;-84
2023/01/05 10:26:27;;;;;;;0.00;0.00;;;;;;;;;;5045448;28;20037;-83
2023/01/05 10:29:01;;;;;;;1.42;0.20;;;;;;;;;;5035824;28;20567;-83
2023/01/05 10:32:22;;;;;;;0.63;0.20;;;;;;;;;;5045476;28;20064;-83
2023/01/05 10:34:58;;;;;;;2.35;0.20;;;;;;;;;;4995012;28;20049;-84
2023/01/05 10:37:26;;;;;;;0.10;0.10;;;;;;;;;;5043318;28;20406;-84
2023/01/05 10:40:05;;;;;;;0.30;0.17;;;;;;;;;;5045555;28;20041;-82
2023/01/05 10:42:48;;;;;;;0.30;0.10;;;;;;;;;;5046080;28;20060;-81
2023/01/05 10:45:16;;;;;;;0.20;0.20;;;;;;;;;;5043467;28;20033;-83
2023/01/05 10:47:44;;;;;;;0.20;0.20;;;;;;;;;;5044921;28;20063;-83
2023/01/05 10:50:29;;;;;;;0.45;0.20;;;;;;;;;;5043859;28;20048;-83
2023/01/05 10:52:55;;;;;;;0.20;0.20;;;;;;;;;;5044529;28;20040;-84
2023/01/05 10:55:22;;;;;;;1.50;0.10;;;;;;;;;;5043540;28;20044;-83
2023/01/05 10:57:48;;;;;;;0.52;0.30;;;;;;;;;;5028310;28;20093;-82
2023/01/05 11:00:20;;;;;;;0.88;0.20;;;;;;;;;;5046178;28;20044;-82
2023/01/05 11:02:59;;;;;;;0.20;0.20;;;;;;;;;;5042912;28;20071;-82
2023/01/05 11:05:34;;;;;;;0.38;0.20;;;;;;;;;;5044491;28;20040;-81
2023/01/05 11:08:02;;;;;;;0.20;0.20;;;;;;;;;;5044807;28;20128;-82
2023/01/05 11:10:39;;;;;;;0.13;0.10;;;;;;;;;;5043108;28;20042;-83
2023/01/05 11:13:17;;;;;;;0.20;0.20;;;;;;;;;;5041795;28;20561;-83
2023/01/05 11:15:59;;;;;;;2.30;0.22;;;;;;;;;;5043071;28;20101;-85
2023/01/05 11:18:29;;;;;;;0.50;0.13;;;;;;;;;;5042101;28;20021;-83
2023/01/05 11:21:05;;;;;;;0.10;0.10;;;;;;;;;;5044096;28;20037;-84
2023/01/05 11:23:37;;;;;;;0.38;0.20;;;;;;;;;;5042370;28;20140;-84
2023/01/05 11:26:17;;;;;;;2.17;0.20;;;;;;;;;;5043461;28;20034;-83
2023/01/05 11:28:57;;;;;;;0.38;0.15;;;;;;;;;;5043651;28;20098;-84
2023/01/05 11:31:36;;;;;;;0.20;0.20;;;;;;;;;;5028845;28;20505;-84
2023/01/05 11:34:29;;;;;;;0.13;0.13;;;;;;;;;;5045885;28;20063;-84
2023/01/05 11:36:57;;;;;;;0.10;0.10;;;;;;;;;;5044882;28;20030;-84
2023/01/05 11:39:30;;;;;;;0.15;0.10;;;;;;;;;;5046607;28;20377;-84
2023/01/05 11:42:12;;;;;;;1.60;0.25;;;;;;;;;;5045619;28;20039;-84
2023/01/05 11:44:42;;;;;;;0.38;0.30;;;;;;;;;;5043832;28;20144;-84
2023/01/05 11:47:08;;;;;;;0.30;0.20;;;;;;;;;;5045234;28;20068;-84
2023/01/05 11:49:34;;;;;;;0.20;0.20;;;;;;;;;;5045966;28;20028;-84
2023/01/05 11:52:00;;;;;;;0.20;0.20;;;;;;;;;;5046528;28;20029;-83
2023/01/05 11:54:33;;;;;;;0.10;0.10;;;;;;;;;;5046021;28;20041;-84
2023/01/05 11:57:11;;;;;;;0.32;0.10;;;;;;;;;;5027583;28;20238;-84
2023/01/05 11:59:36;;;;;;;0.57;0.40;;;;;;;;;;5042136;28;20501;-85
2023/01/05 12:02:38;;;;;;;0.10;0.10;;;;;;;;;;5042394;28;20041;-85
2023/01/05 12:05:20;;;;;;;1.83;0.20;;;;;;;;;;5042001;28;20033;-84
2023/01/05 12:08:00;;;;;;;0.47;0.15;;;;;;;;;;5041290;28;20493;-84
2023/01/05 12:10:46;;;;;;;0.40;0.28;;;;;;;;;;5041963;28;20030;-83
2023/01/05 12:13:46;;;;;;;0.50;0.30;;;;;;;;;;5038738;28;20052;-87
2023/01/05 12:16:33;;;;;;;0.57;0.20;;;;;;;;;;5038395;28;20123;-84
2023/01/05 12:19:24;;;;;;;1.35;0.20;;;;;;;;;;5037692;28;20037;-86
2023/01/05 12:22:15;;;;;;;0.20;0.13;;;;;;;;;;5037446;28;20052;-85
2023/01/05 12:25:10;;;;;;;0.35;0.20;;;;;;;;;;5019393;28;20037;-85
2023/01/05 12:28:01;;;;;;;0.60;0.55;;;;;;;;;;5000829;28;20136;-86
2023/01/05 12:30:27;;;;;;;0.22;0.22;;;;;;;;;;5034275;28;20099;-85
2023/01/05 12:33:12;;;;;;;0.50;0.13;;;;;;;;;;5038489;28;20100;-86
2023/01/05 12:36:03;;;;;;;0.65;0.30;;;;;;;;;;5023825;28;20053;-85
2023/01/05 12:38:36;;;;;;;2.78;0.90;;;;;;;;;;5013007;28;20041;-86
2023/01/05 12:41:14;;;;;;;0.77;0.50;;;;;;;;;;5037909;28;20413;-86
2023/01/05 12:44:33;;;;;;;2.00;1.30;;;;;;;;;;5038446;28;20037;-87
2023/01/05 12:47:12;;;;;;;0.30;0.20;;;;;;;;;;4961290;28;20141;-86
2023/01/05 12:50:01;;;;;;;1.27;0.40;;;;;;;;;;5030994;28;20045;-86
2023/01/05 12:52:40;;;;;;;0.80;0.30;;;;;;;;;;5039113;28;20036;-86
2023/01/05 12:55:22;;;;;;;0.43;0.43;;;;;;;;;;5038444;28;20045;-86
2023/01/05 12:57:56;;;;;;;1.45;1.08;;;;;;;;;;5038448;28;20049;-87
2023/01/05 13:00:21;;;;;;;;;;;;;;;;;;5039621;28;20093;-85
2023/01/05 13:02:53;;;;;;;0.95;0.40;;;;;;;;;;5038801;28;20021;-85
2023/01/05 13:05:30;;;;;;;0.60;0.40;;;;;;;;;;5037594;28;20056;-87
2023/01/05 13:08:00;;;;;;;0.50;0.40;;;;;;;;;;5035898;28;20120;-83
2023/01/05 13:10:43;;;;;;;0.40;0.40;;;;;;;;;;5040512;28;20033;-84
2023/01/05 13:13:13;;;;;;;0.63;0.47;;;;;;;;;;5022914;28;20128;-84
2023/01/05 13:15:57;;;;;;;1.05;0.50;;;;;;;;;;5038881;28;20508;-85
2023/01/05 13:18:25;;;;;;;0.98;0.50;;;;;;;;;;5039625;28;20032;-83
2023/01/05 13:20:56;;;;;;;0.20;0.20;;;;;;;;;;5039924;28;20095;-84
2023/01/05 13:23:27;;;;;;;0.75;0.17;;;;;;;;;;5040306;28;20042;-82
2023/01/05 13:26:06;;;;;;;0.77;0.22;;;;;;;;;;5039704;28;20037;-84
2023/01/05 13:28:32;;;;;;;0.38;0.22;;;;;;;;;;5041630;28;20105;-84
2023/01/05 13:31:19;;;;;;;0.13;0.10;;;;;;;;;;5040619;28;20418;-84
2023/01/05 13:33:57;;;;;;;0.20;0.20;;;;;;;;;;5043263;28;20056;-84
2023/01/05 13:36:44;;;;;;;0.20;0.10;;;;;;;;;;5041133;28;20486;-83
2023/01/05 13:39:38;;;;;;;0.20;0.20;;;;;;;;;;5044029;28;20125;-84
2023/01/05 13:42:11;;;;;;;1.85;0.28;;;;;;;;;;5027315;28;20037;-85
2023/01/05 13:44:43;;;;;;;0.22;0.10;;;;;;;;;;5027120;28;20048;-84
2023/01/05 13:47:14;;;;;;;0.30;0.30;;;;;;;;;;5043488;28;20050;-85
2023/01/05 13:50:16;;;;;;;0.40;0.20;;;;;;;;;;5044581;28;20041;-85
2023/01/05 13:53:10;;;;;;;0.45;0.30;;;;;;;;;;5044210;28;20060;-84
2023/01/05 13:56:01;;;;;;;0.40;0.17;;;;;;;;;;5043072;28;20133;-84
2023/01/05 13:58:35;;;;;;;0.30;0.30;;;;;;;;;;5043150;28;20037;-85
2023/01/05 14:01:03;;;;;;;0.68;0.20;;;;;;;;;;5027222;28;20041;-85
2023/01/05 14:03:34;;;;;;;0.20;0.20;;;;;;;;;;5042554;28;20490;-86
2023/01/05 14:06:04;;;;;;;0.30;0.30;;;;;;;;;;5041762;28;20299;-87
2023/01/05 14:08:34;;;;;;;0.30;0.30;;;;;;;;;;5024379;28;20044;-87
2023/01/05 14:11:19;;;;;;;0.28;0.25;;;;;;;;;;5045005;28;20036;-87
2023/01/05 14:13:57;;;;;;;0.65;0.35;;;;;;;;;;5027001;28;20061;-86
2023/01/05 14:16:36;;;;;;;1.35;0.50;;;;;;;;;;5027115;28;20088;-86
2023/01/05 14:19:20;;;;;;;0.28;0.28;;;;;;;;;;5042654;28;20040;-86
2023/01/05 14:21:48;;;;;;;1.40;1.15;;;;;;;;;;5043025;28;20039;-85
2023/01/05 14:24:29;;;;;;;0.20;0.20;;;;;;;;;;5040285;28;20452;-85
2023/01/05 14:27:02;;;;;;;0.60;0.40;;;;;;;;;;5042252;28;20037;-86
2023/01/05 14:29:58;;;;;;;1.05;0.45;;;;;;;;;;5041441;28;20095;-85
2023/01/05 14:32:33;;;;;;;0.47;0.40;;;;;;;;;;5029386;28;20553;-85
2023/01/05 14:35:08;;;;;;;0.70;0.50;;;;;;;;;;5041454;28;20040;-86
2023/01/05 14:37:38;;;;;;;0.40;0.30;;;;;;;;;;5040547;28;20482;-85
2023/01/05 14:40:14;;;;;;;0.60;0.47;;;;;;;;;;5025722;28;20041;-85
2023/01/05 14:42:40;;;;;;;0.30;0.30;;;;;;;;;;5042402;28;20316;-86
2023/01/05 14:45:17;;;;;;;0.90;0.57;;;;;;;;;;5043931;28;20060;-85
2023/01/05 14:47:47;;;;;;;0.40;0.40;;;;;;;;;;5026285;28;20047;-85
2023/01/05 14:50:31;;;;;;;0.68;0.30;;;;;;;;;;5042836;28;20042;-84
2023/01/05 14:53:05;;;;;;;0.90;0.50;;;;;;;;;;5043904;28;20033;-85
2023/01/05 14:55:59;;;;;;;2.75;0.40;;;;;;;;;;5042576;28;20041;-85
2023/01/05 14:58:36;;;;;;;;;;;;;;;;;;5042262;28;20038;-86
2023/01/05 15:01:17;;;;;;;0.57;0.40;;;;;;;;;;5039273;28;19920;-86
2023/01/05 15:03:48;;;;;;;0.75;0.45;;;;;;;;;;5040725;28;20042;-86
2023/01/05 15:06:43;;;;;;;0.52;0.40;;;;;;;;;;5039453;28;20044;-87
2023/01/05 15:09:20;;;;;;;0.57;0.50;;;;;;;;;;5004001;28;20061;-87
2023/01/05 15:12:08;;;;;;;1.33;0.40;;;;;;;;;;5003138;28;20133;-88
2023/01/05 15:15:03;;;;;;;0.70;0.50;;;;;;;;;;5017738;28;20032;-87
2023/01/05 15:17:47;;;;;;;0.40;0.40;;;;;;;;;;5021189;28;20064;-87
2023/01/05 15:20:31;;;;;;;0.50;0.45;;;;;;;;;;5002777;28;20041;-86
2023/01/05 15:23:21;;;;;;;0.73;0.50;;;;;;;;;;5018956;28;20038;-87
2023/01/05 15:26:18;;;;;;;0.77;0.47;;;;;;;;;;5018538;28;20394;-86
2023/01/05 15:29:25;;;;;;;1.15;0.50;;;;;;;;;;5016260;28;20034;-85
2023/01/05 15:32:09;;;;;;;0.88;0.60;;;;;;;;;;5010710;28;20069;-87
2023/01/05 15:34:42;;;;;;;1.38;0.50;;;;;;;;;;5015841;28;20073;-86
2023/01/05 15:37:21;;;;;;;0.88;0.40;;;;;;;;;;5013021;28;20048;-86
2023/01/05 15:39:55;;;;;;;1.35;0.60;;;;;;;;;;5015200;28;20038;-86
2023/01/05 15:42:22;;;;;;;1.67;0.50;;;;;;;;;;5015520;28;20041;-87
2023/01/05 15:44:50;;;;;;;1.10;0.60;;;;;;;;;;5014227;28;20026;-85